sensor_id;sensor_type;location;lat;lon;timestamp;temperature;humidity
9662;DHT22;24982;52.344;12.990;2023-06-24T00:02:48;19.20;99.90
9662;DHT22;24982;52.344;12.990;2023-06-24T00:05:51;19.30;99.90
9662;DHT22;24982;52.344;12.990;2023-06-24T00:08:54;19.20;99.90
9662;DHT22;24982;52.344;12.990;2023-06-24T00:12:02;19.20;99.90
9662;DHT22;24982;52.344;12.990;2023-06-24T00:15:06;19.20;99.90
9662;DHT22;24982;52.344;12.990;2023-06-24T00:18:08;19.20;99.90
9662;DHT22;24982;52.344;12.990;2023-06-24T00:21:10;19.10;99.90
9662;DHT22;24982;52.344;12.990;2023-06-24T00:24:12;19.10;99.90
9662;DHT22;24982;52.344;12.990;2023-06-24T00:27:16;19.20;99.90
9662;DHT22;24982;52.344;12.990;2023-06-24T00:30:18;19.10;99.90
9662;DHT22;24982;52.344;12.990;2023-06-24T00:33:19;19.10;99.90
9662;DHT22;24982;52.344;12.990;2023-06-24T00:36:22;19.10;99.90
9662;DHT22;24982;52.344;12.990;2023-06-24T00:39:24;19.10;99.90
9662;DHT22;24982;52.344;12.990;2023-06-24T00:42:27;19.10;99.90
9662;DHT22;24982;52.344;12.990;2023-06-24T00:45:29;19.00;99.90
9662;DHT22;24982;52.344;12.990;2023-06-24T00:48:31;19.10;99.90
9662;DHT22;24982;52.344;12.990;2023-06-24T00:51:33;19.10;99.90
9662;DHT22;24982;52.344;12.990;2023-06-24T00:54:36;19.00;99.90
9662;DHT22;24982;52.344;12.990;2023-06-24T00:57:40;19.00;99.90
9662;DHT22;24982;52.344;12.990;2023-06-24T01:00:44;19.10;99.90
9662;DHT22;24982;52.344;12.990;2023-06-24T01:03:47;19.10;99.90
9662;DHT22;24982;52.344;12.990;2023-06-24T01:06:49;19.00;99.90
9662;DHT22;24982;52.344;12.990;2023-06-24T01:09:52;19.10;99.90
9662;DHT22;24982;52.344;12.990;2023-06-24T01:12:55;19.00;99.90
9662;DHT22;24982;52.344;12.990;2023-06-24T01:16:00;19.00;99.90
9662;DHT22;24982;52.344;12.990;2023-06-24T01:19:13;19.00;99.90
9662;DHT22;24982;52.344;12.990;2023-06-24T01:22:48;19.00;99.90
9662;DHT22;24982;52.344;12.990;2023-06-24T01:26:24;19.00;99.90
9662;DHT22;24982;52.344;12.990;2023-06-24T01:29:55;19.00;99.90
9662;DHT22;24982;52.344;12.990;2023-06-24T01:33:07;18.90;99.90
9662;DHT22;24982;52.344;12.990;2023-06-24T01:36:12;18.90;99.90
9662;DHT22;24982;52.344;12.990;2023-06-24T01:39:18;18.90;99.90
9662;DHT22;24982;52.344;12.990;2023-06-24T01:42:22;18.90;99.90
9662;DHT22;24982;52.344;12.990;2023-06-24T01:45:26;18.90;99.90
9662;DHT22;24982;52.344;12.990;2023-06-24T01:48:34;18.90;99.90
9662;DHT22;24982;52.344;12.990;2023-06-24T01:51:38;18.90;99.90
9662;DHT22;24982;52.344;12.990;2023-06-24T01:54:42;18.80;99.90
9662;DHT22;24982;52.344;12.990;2023-06-24T01:57:48;18.90;99.90
9662;DHT22;24982;52.344;12.990;2023-06-24T02:00:52;18.80;99.90
9662;DHT22;24982;52.344;12.990;2023-06-24T02:03:57;18.70;99.90
9662;DHT22;24982;52.344;12.990;2023-06-24T02:07:02;18.70;99.90
9662;DHT22;24982;52.344;12.990;2023-06-24T02:10:06;18.70;99.90
9662;DHT22;24982;52.344;12.990;2023-06-24T02:13:10;18.70;99.90
9662;DHT22;24982;52.344;12.990;2023-06-24T02:16:13;18.60;99.90
9662;DHT22;24982;52.344;12.990;2023-06-24T02:19:18;18.60;99.90
9662;DHT22;24982;52.344;12.990;2023-06-24T02:22:21;18.50;99.90
9662;DHT22;24982;52.344;12.990;2023-06-24T02:25:26;18.60;99.90
9662;DHT22;24982;52.344;12.990;2023-06-24T02:28:29;18.60;99.90
9662;DHT22;24982;52.344;12.990;2023-06-24T02:31:31;18.50;99.90
9662;DHT22;24982;52.344;12.990;2023-06-24T02:34:35;18.50;99.90
9662;DHT22;24982;52.344;12.990;2023-06-24T02:37:37;18.50;99.90
9662;DHT22;24982;52.344;12.990;2023-06-24T02:40:42;18.40;99.90
9662;DHT22;24982;52.344;12.990;2023-06-24T02:43:44;18.50;99.90
9662;DHT22;24982;52.344;12.990;2023-06-24T02:46:48;18.40;99.90
9662;DHT22;24982;52.344;12.990;2023-06-24T02:49:53;18.40;99.90
9662;DHT22;24982;52.344;12.990;2023-06-24T02:52:57;18.50;99.90
9662;DHT22;24982;52.344;12.990;2023-06-24T02:56:06;18.40;99.90
9662;DHT22;24982;52.344;12.990;2023-06-24T02:59:11;18.40;99.90
9662;DHT22;24982;52.344;12.990;2023-06-24T03:02:14;18.40;99.90
9662;DHT22;24982;52.344;12.990;2023-06-24T03:05:18;18.40;99.90
9662;DHT22;24982;52.344;12.990;2023-06-24T03:08:24;18.50;99.90
9662;DHT22;24982;52.344;12.990;2023-06-24T03:11:26;18.50;99.90
9662;DHT22;24982;52.344;12.990;2023-06-24T03:14:31;18.40;99.90
9662;DHT22;24982;52.344;12.990;2023-06-24T03:17:33;18.40;99.90
9662;DHT22;24982;52.344;12.990;2023-06-24T03:20:37;18.40;99.90
9662;DHT22;24982;52.344;12.990;2023-06-24T03:23:43;18.30;99.90
9662;DHT22;24982;52.344;12.990;2023-06-24T03:26:48;18.30;99.90
9662;DHT22;24982;52.344;12.990;2023-06-24T03:29:56;18.30;99.90
9662;DHT22;24982;52.344;12.990;2023-06-24T03:32:59;18.30;99.90
9662;DHT22;24982;52.344;12.990;2023-06-24T03:36:03;18.20;99.90
9662;DHT22;24982;52.344;12.990;2023-06-24T03:39:08;18.30;99.90
9662;DHT22;24982;52.344;12.990;2023-06-24T03:42:10;18.30;99.90
9662;DHT22;24982;52.344;12.990;2023-06-24T03:45:12;18.30;99.90
9662;DHT22;24982;52.344;12.990;2023-06-24T03:48:14;18.20;99.90
9662;DHT22;24982;52.344;12.990;2023-06-24T03:51:17;18.20;99.90
9662;DHT22;24982;52.344;12.990;2023-06-24T03:54:20;18.20;99.90
9662;DHT22;24982;52.344;12.990;2023-06-24T03:57:23;18.20;99.90
9662;DHT22;24982;52.344;12.990;2023-06-24T04:00:25;18.20;99.90
9662;DHT22;24982;52.344;12.990;2023-06-24T04:03:27;18.20;99.90
9662;DHT22;24982;52.344;12.990;2023-06-24T04:06:30;18.20;99.90
9662;DHT22;24982;52.344;12.990;2023-06-24T04:09:33;18.20;99.90
9662;DHT22;24982;52.344;12.990;2023-06-24T04:12:35;18.20;99.90
9662;DHT22;24982;52.344;12.990;2023-06-24T04:15:37;18.20;99.90
9662;DHT22;24982;52.344;12.990;2023-06-24T04:18:40;18.20;99.90
9662;DHT22;24982;52.344;12.990;2023-06-24T04:21:43;18.30;99.90
9662;DHT22;24982;52.344;12.990;2023-06-24T04:24:47;18.20;99.90
9662;DHT22;24982;52.344;12.990;2023-06-24T04:27:49;18.20;99.90
9662;DHT22;24982;52.344;12.990;2023-06-24T04:30:51;18.20;99.90
9662;DHT22;24982;52.344;12.990;2023-06-24T04:33:53;18.30;99.90
9662;DHT22;24982;52.344;12.990;2023-06-24T04:36:57;18.10;99.90
9662;DHT22;24982;52.344;12.990;2023-06-24T04:39:59;18.10;99.90
9662;DHT22;24982;52.344;12.990;2023-06-24T04:43:01;18.20;99.90
9662;DHT22;24982;52.344;12.990;2023-06-24T04:46:03;18.20;99.90
9662;DHT22;24982;52.344;12.990;2023-06-24T04:49:05;18.20;99.90
9662;DHT22;24982;52.344;12.990;2023-06-24T04:52:08;18.30;99.90
9662;DHT22;24982;52.344;12.990;2023-06-24T04:55:10;18.30;99.90
9662;DHT22;24982;52.344;12.990;2023-06-24T04:58:12;18.30;99.90
9662;DHT22;24982;52.344;12.990;2023-06-24T05:01:14;18.30;99.90
9662;DHT22;24982;52.344;12.990;2023-06-24T05:04:16;18.30;99.90
9662;DHT22;24982;52.344;12.990;2023-06-24T05:07:20;18.30;99.90
9662;DHT22;24982;52.344;12.990;2023-06-24T05:10:22;18.40;99.90
9662;DHT22;24982;52.344;12.990;2023-06-24T05:13:24;18.40;99.90
9662;DHT22;24982;52.344;12.990;2023-06-24T05:16:26;18.50;99.90
9662;DHT22;24982;52.344;12.990;2023-06-24T05:19:28;18.50;99.90
9662;DHT22;24982;52.344;12.990;2023-06-24T05:22:31;18.50;99.90
9662;DHT22;24982;52.344;12.990;2023-06-24T05:25:33;18.50;99.90
9662;DHT22;24982;52.344;12.990;2023-06-24T05:28:35;18.50;99.90
9662;DHT22;24982;52.344;12.990;2023-06-24T05:31:38;18.50;99.90
9662;DHT22;24982;52.344;12.990;2023-06-24T05:34:40;18.50;99.90
9662;DHT22;24982;52.344;12.990;2023-06-24T05:37:43;18.40;99.90
9662;DHT22;24982;52.344;12.990;2023-06-24T05:40:45;18.20;99.90
9662;DHT22;24982;52.344;12.990;2023-06-24T05:43:47;18.50;99.90
9662;DHT22;24982;52.344;12.990;2023-06-24T05:46:49;18.60;99.90
9662;DHT22;24982;52.344;12.990;2023-06-24T05:49:51;18.60;99.90
9662;DHT22;24982;52.344;12.990;2023-06-24T05:52:54;18.50;99.90
9662;DHT22;24982;52.344;12.990;2023-06-24T05:55:56;18.50;99.90
9662;DHT22;24982;52.344;12.990;2023-06-24T05:58:58;18.60;99.90
9662;DHT22;24982;52.344;12.990;2023-06-24T06:02:00;18.50;99.90
9662;DHT22;24982;52.344;12.990;2023-06-24T06:05:03;18.40;99.90
9662;DHT22;24982;52.344;12.990;2023-06-24T06:08:07;18.50;99.90
9662;DHT22;24982;52.344;12.990;2023-06-24T06:11:09;18.60;99.90
9662;DHT22;24982;52.344;12.990;2023-06-24T06:14:11;18.50;99.90
9662;DHT22;24982;52.344;12.990;2023-06-24T06:17:14;18.60;99.90
9662;DHT22;24982;52.344;12.990;2023-06-24T06:20:16;18.60;99.90
9662;DHT22;24982;52.344;12.990;2023-06-24T06:23:19;18.70;99.90
9662;DHT22;24982;52.344;12.990;2023-06-24T06:26:22;18.60;99.90
9662;DHT22;24982;52.344;12.990;2023-06-24T06:29:24;18.60;99.90
9662;DHT22;24982;52.344;12.990;2023-06-24T06:32:25;18.60;99.90
9662;DHT22;24982;52.344;12.990;2023-06-24T06:35:27;18.70;99.90
9662;DHT22;24982;52.344;12.990;2023-06-24T06:38:32;18.70;99.90
9662;DHT22;24982;52.344;12.990;2023-06-24T06:41:34;18.70;99.90
9662;DHT22;24982;52.344;12.990;2023-06-24T06:44:36;18.70;99.90
9662;DHT22;24982;52.344;12.990;2023-06-24T06:47:38;18.80;99.90
9662;DHT22;24982;52.344;12.990;2023-06-24T06:50:40;18.90;99.90
9662;DHT22;24982;52.344;12.990;2023-06-24T06:53:44;18.90;99.90
9662;DHT22;24982;52.344;12.990;2023-06-24T06:56:46;18.90;99.90
9662;DHT22;24982;52.344;12.990;2023-06-24T06:59:48;18.90;99.90
9662;DHT22;24982;52.344;12.990;2023-06-24T07:02:51;19.00;99.90
9662;DHT22;24982;52.344;12.990;2023-06-24T07:05:53;19.10;99.90
9662;DHT22;24982;52.344;12.990;2023-06-24T07:08:56;19.10;99.90
9662;DHT22;24982;52.344;12.990;2023-06-24T07:11:58;19.10;99.90
9662;DHT22;24982;52.344;12.990;2023-06-24T07:15:00;18.90;99.90
9662;DHT22;24982;52.344;12.990;2023-06-24T07:18:03;18.80;99.90
9662;DHT22;24982;52.344;12.990;2023-06-24T07:21:04;18.70;99.90
9662;DHT22;24982;52.344;12.990;2023-06-24T07:24:08;18.70;99.90
9662;DHT22;24982;52.344;12.990;2023-06-24T07:27:10;18.80;99.90
9662;DHT22;24982;52.344;12.990;2023-06-24T07:30:12;18.20;99.90
9662;DHT22;24982;52.344;12.990;2023-06-24T07:33:14;18.90;99.90
9662;DHT22;24982;52.344;12.990;2023-06-24T07:36:16;18.90;99.90
9662;DHT22;24982;52.344;12.990;2023-06-24T07:39:19;19.00;99.90
9662;DHT22;24982;52.344;12.990;2023-06-24T07:42:21;19.00;99.90
9662;DHT22;24982;52.344;12.990;2023-06-24T07:45:23;19.10;99.90
9662;DHT22;24982;52.344;12.990;2023-06-24T07:48:26;19.10;99.90
9662;DHT22;24982;52.344;12.990;2023-06-24T07:51:28;19.10;99.90
9662;DHT22;24982;52.344;12.990;2023-06-24T07:54:31;19.30;99.90
9662;DHT22;24982;52.344;12.990;2023-06-24T07:57:33;19.20;99.90
9662;DHT22;24982;52.344;12.990;2023-06-24T08:00:35;19.30;99.90
9662;DHT22;24982;52.344;12.990;2023-06-24T08:03:37;19.30;99.90
9662;DHT22;24982;52.344;12.990;2023-06-24T08:06:39;19.30;99.90
9662;DHT22;24982;52.344;12.990;2023-06-24T08:09:43;19.30;99.90
9662;DHT22;24982;52.344;12.990;2023-06-24T08:12:45;19.40;99.90
9662;DHT22;24982;52.344;12.990;2023-06-24T08:15:47;19.50;99.90
9662;DHT22;24982;52.344;12.990;2023-06-24T08:18:49;19.50;99.90
9662;DHT22;24982;52.344;12.990;2023-06-24T08:21:51;19.50;99.90
9662;DHT22;24982;52.344;12.990;2023-06-24T08:24:54;19.50;99.90
9662;DHT22;24982;52.344;12.990;2023-06-24T08:27:56;19.60;99.90
9662;DHT22;24982;52.344;12.990;2023-06-24T08:30:58;19.60;99.90
9662;DHT22;24982;52.344;12.990;2023-06-24T08:34:00;19.70;99.90
9662;DHT22;24982;52.344;12.990;2023-06-24T08:37:03;19.80;99.90
9662;DHT22;24982;52.344;12.990;2023-06-24T08:40:07;19.80;99.90
9662;DHT22;24982;52.344;12.990;2023-06-24T08:43:10;19.90;99.90
9662;DHT22;24982;52.344;12.990;2023-06-24T08:46:13;19.90;99.90
9662;DHT22;24982;52.344;12.990;2023-06-24T08:49:25;20.00;99.90
9662;DHT22;24982;52.344;12.990;2023-06-24T08:52:30;20.10;99.90
9662;DHT22;24982;52.344;12.990;2023-06-24T08:55:39;20.00;99.90
9662;DHT22;24982;52.344;12.990;2023-06-24T08:58:41;20.10;99.90
9662;DHT22;24982;52.344;12.990;2023-06-24T09:01:43;20.20;99.90
9662;DHT22;24982;52.344;12.990;2023-06-24T09:04:45;20.20;99.90
9662;DHT22;24982;52.344;12.990;2023-06-24T09:07:48;20.20;99.90
9662;DHT22;24982;52.344;12.990;2023-06-24T09:10:54;20.20;99.90
9662;DHT22;24982;52.344;12.990;2023-06-24T09:13:57;20.20;99.90
9662;DHT22;24982;52.344;12.990;2023-06-24T09:17:00;20.30;99.90
9662;DHT22;24982;52.344;12.990;2023-06-24T09:20:04;20.40;99.90
9662;DHT22;24982;52.344;12.990;2023-06-24T09:23:06;20.50;99.90
9662;DHT22;24982;52.344;12.990;2023-06-24T09:26:11;20.70;99.90
9662;DHT22;24982;52.344;12.990;2023-06-24T09:29:13;20.70;99.90
9662;DHT22;24982;52.344;12.990;2023-06-24T09:32:16;20.70;99.90
9662;DHT22;24982;52.344;12.990;2023-06-24T09:35:19;20.70;99.90
9662;DHT22;24982;52.344;12.990;2023-06-24T09:38:32;20.90;99.90
9662;DHT22;24982;52.344;12.990;2023-06-24T09:41:35;20.90;99.90
9662;DHT22;24982;52.344;12.990;2023-06-24T09:44:38;21.00;99.90
9662;DHT22;24982;52.344;12.990;2023-06-24T09:47:40;21.10;99.90
9662;DHT22;24982;52.344;12.990;2023-06-24T09:50:42;21.10;99.90
9662;DHT22;24982;52.344;12.990;2023-06-24T09:53:44;21.30;99.90
9662;DHT22;24982;52.344;12.990;2023-06-24T09:56:49;21.30;99.90
9662;DHT22;24982;52.344;12.990;2023-06-24T09:59:51;21.40;99.90
9662;DHT22;24982;52.344;12.990;2023-06-24T10:02:54;21.50;99.90
9662;DHT22;24982;52.344;12.990;2023-06-24T10:05:57;21.60;99.90
9662;DHT22;24982;52.344;12.990;2023-06-24T10:08:59;21.70;99.90
9662;DHT22;24982;52.344;12.990;2023-06-24T10:12:03;21.80;99.90
9662;DHT22;24982;52.344;12.990;2023-06-24T10:15:06;21.90;99.90
9662;DHT22;24982;52.344;12.990;2023-06-24T10:18:37;22.10;99.90
9662;DHT22;24982;52.344;12.990;2023-06-24T10:21:46;22.20;99.90
9662;DHT22;24982;52.344;12.990;2023-06-24T10:24:50;22.30;99.90
9662;DHT22;24982;52.344;12.990;2023-06-24T10:27:54;22.40;99.90
9662;DHT22;24982;52.344;12.990;2023-06-24T10:30:57;22.50;99.90
9662;DHT22;24982;52.344;12.990;2023-06-24T10:33:59;22.50;99.90
9662;DHT22;24982;52.344;12.990;2023-06-24T10:37:02;22.60;99.90
9662;DHT22;24982;52.344;12.990;2023-06-24T10:40:05;22.80;99.90
9662;DHT22;24982;52.344;12.990;2023-06-24T10:43:28;22.90;99.90
9662;DHT22;24982;52.344;12.990;2023-06-24T10:46:33;23.40;99.90
9662;DHT22;24982;52.344;12.990;2023-06-24T10:49:35;23.40;99.90
9662;DHT22;24982;52.344;12.990;2023-06-24T10:52:38;23.30;99.90
9662;DHT22;24982;52.344;12.990;2023-06-24T10:55:40;23.20;99.90
9662;DHT22;24982;52.344;12.990;2023-06-24T10:58:56;23.20;99.90
9662;DHT22;24982;52.344;12.990;2023-06-24T11:01:58;23.30;99.90
9662;DHT22;24982;52.344;12.990;2023-06-24T11:05:01;23.40;99.90
9662;DHT22;24982;52.344;12.990;2023-06-24T11:08:05;23.50;99.90
9662;DHT22;24982;52.344;12.990;2023-06-24T11:11:07;23.60;99.90
9662;DHT22;24982;52.344;12.990;2023-06-24T11:14:10;23.50;99.90
9662;DHT22;24982;52.344;12.990;2023-06-24T11:17:12;24.00;99.90
9662;DHT22;24982;52.344;12.990;2023-06-24T11:20:14;24.10;99.90
9662;DHT22;24982;52.344;12.990;2023-06-24T11:23:16;24.30;99.90
9662;DHT22;24982;52.344;12.990;2023-06-24T11:26:18;24.40;99.90
9662;DHT22;24982;52.344;12.990;2023-06-24T11:29:22;24.40;99.90
9662;DHT22;24982;52.344;12.990;2023-06-24T11:32:24;24.40;99.90
9662;DHT22;24982;52.344;12.990;2023-06-24T11:35:26;24.60;99.90
9662;DHT22;24982;52.344;12.990;2023-06-24T11:38:28;24.60;99.90
9662;DHT22;24982;52.344;12.990;2023-06-24T11:41:32;24.60;99.90
9662;DHT22;24982;52.344;12.990;2023-06-24T11:44:40;24.50;99.90
9662;DHT22;24982;52.344;12.990;2023-06-24T11:47:43;24.70;99.90
9662;DHT22;24982;52.344;12.990;2023-06-24T11:50:53;24.70;99.90
9662;DHT22;24982;52.344;12.990;2023-06-24T11:53:58;24.70;99.90
9662;DHT22;24982;52.344;12.990;2023-06-24T11:57:01;24.70;99.90
9662;DHT22;24982;52.344;12.990;2023-06-24T12:00:12;24.80;99.90
9662;DHT22;24982;52.344;12.990;2023-06-24T12:03:14;25.10;99.90
9662;DHT22;24982;52.344;12.990;2023-06-24T12:06:16;25.00;99.90
9662;DHT22;24982;52.344;12.990;2023-06-24T12:09:18;25.10;99.90
9662;DHT22;24982;52.344;12.990;2023-06-24T12:12:20;25.10;99.90
9662;DHT22;24982;52.344;12.990;2023-06-24T12:15:24;25.00;99.90
9662;DHT22;24982;52.344;12.990;2023-06-24T12:18:26;24.70;99.90
9662;DHT22;24982;52.344;12.990;2023-06-24T12:21:28;24.60;99.90
9662;DHT22;24982;52.344;12.990;2023-06-24T12:24:30;24.80;99.90
9662;DHT22;24982;52.344;12.990;2023-06-24T12:27:32;24.90;99.90
9662;DHT22;24982;52.344;12.990;2023-06-24T12:30:36;24.60;99.90
9662;DHT22;24982;52.344;12.990;2023-06-24T12:33:38;24.50;99.90
9662;DHT22;24982;52.344;12.990;2023-06-24T12:36:40;24.70;99.90
9662;DHT22;24982;52.344;12.990;2023-06-24T12:39:42;24.70;99.90
9662;DHT22;24982;52.344;12.990;2023-06-24T12:42:44;24.90;99.90
9662;DHT22;24982;52.344;12.990;2023-06-24T12:45:48;24.90;99.90
9662;DHT22;24982;52.344;12.990;2023-06-24T12:48:51;24.80;99.90
9662;DHT22;24982;52.344;12.990;2023-06-24T12:51:53;24.80;99.90
9662;DHT22;24982;52.344;12.990;2023-06-24T12:54:55;24.80;99.90
9662;DHT22;24982;52.344;12.990;2023-06-24T12:57:57;24.90;99.90
9662;DHT22;24982;52.344;12.990;2023-06-24T13:01:01;24.60;99.90
9662;DHT22;24982;52.344;12.990;2023-06-24T13:04:04;24.60;99.90
9662;DHT22;24982;52.344;12.990;2023-06-24T13:07:06;24.40;99.90
9662;DHT22;24982;52.344;12.990;2023-06-24T13:10:10;24.40;99.90
9662;DHT22;24982;52.344;12.990;2023-06-24T13:13:13;24.50;99.90
9662;DHT22;24982;52.344;12.990;2023-06-24T13:16:18;24.40;99.90
9662;DHT22;24982;52.344;12.990;2023-06-24T13:19:19;24.40;99.90
9662;DHT22;24982;52.344;12.990;2023-06-24T13:22:21;24.20;99.90
9662;DHT22;24982;52.344;12.990;2023-06-24T13:25:23;24.10;99.90
9662;DHT22;24982;52.344;12.990;2023-06-24T13:28:25;24.00;99.90
9662;DHT22;24982;52.344;12.990;2023-06-24T13:31:29;23.90;99.90
9662;DHT22;24982;52.344;12.990;2023-06-24T13:34:31;23.90;99.90
9662;DHT22;24982;52.344;12.990;2023-06-24T13:37:33;23.90;99.90
9662;DHT22;24982;52.344;12.990;2023-06-24T13:40:35;23.30;99.90
9662;DHT22;24982;52.344;12.990;2023-06-24T13:43:37;24.10;99.90
9662;DHT22;24982;52.344;12.990;2023-06-24T13:46:40;24.00;99.90
9662;DHT22;24982;52.344;12.990;2023-06-24T13:49:42;24.20;99.90
9662;DHT22;24982;52.344;12.990;2023-06-24T13:52:44;23.90;99.90
9662;DHT22;24982;52.344;12.990;2023-06-24T13:55:46;23.50;99.90
9662;DHT22;24982;52.344;12.990;2023-06-24T13:58:48;23.50;99.90
9662;DHT22;24982;52.344;12.990;2023-06-24T14:01:52;23.50;99.90
9662;DHT22;24982;52.344;12.990;2023-06-24T14:04:53;23.70;99.90
9662;DHT22;24982;52.344;12.990;2023-06-24T14:07:55;23.70;99.90
9662;DHT22;24982;52.344;12.990;2023-06-24T14:10:58;23.90;99.90
9662;DHT22;24982;52.344;12.990;2023-06-24T14:14:00;23.80;99.90
9662;DHT22;24982;52.344;12.990;2023-06-24T14:17:03;23.70;99.90
9662;DHT22;24982;52.344;12.990;2023-06-24T14:20:10;23.70;99.90
9662;DHT22;24982;52.344;12.990;2023-06-24T14:23:12;24.10;99.90
9662;DHT22;24982;52.344;12.990;2023-06-24T14:26:14;23.70;99.90
9662;DHT22;24982;52.344;12.990;2023-06-24T14:29:16;23.70;99.90
9662;DHT22;24982;52.344;12.990;2023-06-24T14:32:20;24.00;99.90
9662;DHT22;24982;52.344;12.990;2023-06-24T14:35:22;23.90;99.90
9662;DHT22;24982;52.344;12.990;2023-06-24T14:38:23;23.70;99.90
9662;DHT22;24982;52.344;12.990;2023-06-24T14:41:25;23.80;99.90
9662;DHT22;24982;52.344;12.990;2023-06-24T14:44:27;23.90;99.90
9662;DHT22;24982;52.344;12.990;2023-06-24T14:47:31;23.90;99.90
9662;DHT22;24982;52.344;12.990;2023-06-24T14:50:33;23.90;99.90
9662;DHT22;24982;52.344;12.990;2023-06-24T14:53:35;24.20;99.90
9662;DHT22;24982;52.344;12.990;2023-06-24T14:56:37;24.20;99.90
9662;DHT22;24982;52.344;12.990;2023-06-24T14:59:39;23.90;99.90
9662;DHT22;24982;52.344;12.990;2023-06-24T15:02:42;23.90;99.90
9662;DHT22;24982;52.344;12.990;2023-06-24T15:05:44;23.90;99.90
9662;DHT22;24982;52.344;12.990;2023-06-24T15:08:46;23.80;99.90
9662;DHT22;24982;52.344;12.990;2023-06-24T15:11:48;23.90;99.90
9662;DHT22;24982;52.344;12.990;2023-06-24T15:14:50;23.80;99.90
9662;DHT22;24982;52.344;12.990;2023-06-24T15:17:54;23.90;99.90
9662;DHT22;24982;52.344;12.990;2023-06-24T15:20:56;23.80;99.90
9662;DHT22;24982;52.344;12.990;2023-06-24T15:23:58;24.00;99.90
9662;DHT22;24982;52.344;12.990;2023-06-24T15:27:00;24.00;99.90
9662;DHT22;24982;52.344;12.990;2023-06-24T15:30:02;24.10;99.90
9662;DHT22;24982;52.344;12.990;2023-06-24T15:33:05;24.00;99.90
9662;DHT22;24982;52.344;12.990;2023-06-24T15:36:07;23.90;99.90
9662;DHT22;24982;52.344;12.990;2023-06-24T15:39:09;23.70;99.90
9662;DHT22;24982;52.344;12.990;2023-06-24T15:42:11;23.70;99.90
9662;DHT22;24982;52.344;12.990;2023-06-24T15:45:13;23.80;99.90
9662;DHT22;24982;52.344;12.990;2023-06-24T15:48:16;23.80;99.90
9662;DHT22;24982;52.344;12.990;2023-06-24T15:51:18;23.70;99.90
9662;DHT22;24982;52.344;12.990;2023-06-24T15:54:21;23.70;99.90
9662;DHT22;24982;52.344;12.990;2023-06-24T15:57:22;23.60;99.90
9662;DHT22;24982;52.344;12.990;2023-06-24T16:00:24;23.60;99.90
9662;DHT22;24982;52.344;12.990;2023-06-24T16:03:28;23.70;99.90
9662;DHT22;24982;52.344;12.990;2023-06-24T16:06:30;23.50;99.90
9662;DHT22;24982;52.344;12.990;2023-06-24T16:09:32;23.50;99.90
9662;DHT22;24982;52.344;12.990;2023-06-24T16:12:34;23.50;99.90
9662;DHT22;24982;52.344;12.990;2023-06-24T16:15:36;23.50;99.90
9662;DHT22;24982;52.344;12.990;2023-06-24T16:18:39;23.40;99.90
9662;DHT22;24982;52.344;12.990;2023-06-24T16:21:41;23.40;99.90
9662;DHT22;24982;52.344;12.990;2023-06-24T16:24:43;23.40;99.90
9662;DHT22;24982;52.344;12.990;2023-06-24T16:27:45;23.50;99.90
9662;DHT22;24982;52.344;12.990;2023-06-24T16:30:47;23.40;99.90
9662;DHT22;24982;52.344;12.990;2023-06-24T16:33:51;23.20;99.90
9662;DHT22;24982;52.344;12.990;2023-06-24T16:36:53;23.10;99.90
9662;DHT22;24982;52.344;12.990;2023-06-24T16:39:55;23.10;99.90
9662;DHT22;24982;52.344;12.990;2023-06-24T16:42:56;23.00;99.90
9662;DHT22;24982;52.344;12.990;2023-06-24T16:45:58;22.90;99.90
9662;DHT22;24982;52.344;12.990;2023-06-24T16:49:02;22.90;99.90
9662;DHT22;24982;52.344;12.990;2023-06-24T16:52:07;22.90;99.90
9662;DHT22;24982;52.344;12.990;2023-06-24T16:55:09;22.90;99.90
9662;DHT22;24982;52.344;12.990;2023-06-24T16:58:11;23.10;99.90
9662;DHT22;24982;52.344;12.990;2023-06-24T17:01:13;23.30;99.90
9662;DHT22;24982;52.344;12.990;2023-06-24T17:04:16;23.30;99.90
9662;DHT22;24982;52.344;12.990;2023-06-24T17:07:18;23.10;99.90
9662;DHT22;24982;52.344;12.990;2023-06-24T17:10:20;23.40;99.90
9662;DHT22;24982;52.344;12.990;2023-06-24T17:13:22;23.40;99.90
9662;DHT22;24982;52.344;12.990;2023-06-24T17:16:24;23.40;99.90
9662;DHT22;24982;52.344;12.990;2023-06-24T17:19:27;23.30;99.90
9662;DHT22;24982;52.344;12.990;2023-06-24T17:22:29;23.30;99.90
9662;DHT22;24982;52.344;12.990;2023-06-24T17:25:31;23.80;99.90
9662;DHT22;24982;52.344;12.990;2023-06-24T17:28:33;23.20;99.90
9662;DHT22;24982;52.344;12.990;2023-06-24T17:31:35;23.20;99.90
9662;DHT22;24982;52.344;12.990;2023-06-24T17:34:38;23.30;99.90
9662;DHT22;24982;52.344;12.990;2023-06-24T17:37:40;23.30;99.90
9662;DHT22;24982;52.344;12.990;2023-06-24T17:40:42;23.40;99.90
9662;DHT22;24982;52.344;12.990;2023-06-24T17:43:44;23.30;99.90
9662;DHT22;24982;52.344;12.990;2023-06-24T17:46:46;23.30;99.90
9662;DHT22;24982;52.344;12.990;2023-06-24T17:49:50;23.30;99.90
9662;DHT22;24982;52.344;12.990;2023-06-24T17:52:51;23.20;99.90
9662;DHT22;24982;52.344;12.990;2023-06-24T17:55:53;23.10;99.90
9662;DHT22;24982;52.344;12.990;2023-06-24T17:58:56;23.00;99.90
9662;DHT22;24982;52.344;12.990;2023-06-24T18:01:58;23.10;99.90
9662;DHT22;24982;52.344;12.990;2023-06-24T18:05:01;22.60;99.90
9662;DHT22;24982;52.344;12.990;2023-06-24T18:08:03;23.10;99.90
9662;DHT22;24982;52.344;12.990;2023-06-24T18:11:05;23.10;99.90
9662;DHT22;24982;52.344;12.990;2023-06-24T18:14:07;23.10;99.90
9662;DHT22;24982;52.344;12.990;2023-06-24T18:17:09;22.80;99.90
9662;DHT22;24982;52.344;12.990;2023-06-24T18:20:13;22.50;99.90
9662;DHT22;24982;52.344;12.990;2023-06-24T18:23:15;22.30;99.90
9662;DHT22;24982;52.344;12.990;2023-06-24T18:26:17;22.50;99.90
9662;DHT22;24982;52.344;12.990;2023-06-24T18:29:19;22.30;99.90
9662;DHT22;24982;52.344;12.990;2023-06-24T18:32:21;22.10;99.90
9662;DHT22;24982;52.344;12.990;2023-06-24T18:35:24;21.90;99.90
9662;DHT22;24982;52.344;12.990;2023-06-24T18:38:26;21.80;99.90
9662;DHT22;24982;52.344;12.990;2023-06-24T18:41:28;21.80;99.90
9662;DHT22;24982;52.344;12.990;2023-06-24T18:44:30;21.50;99.90
9662;DHT22;24982;52.344;12.990;2023-06-24T18:47:32;21.40;99.90
9662;DHT22;24982;52.344;12.990;2023-06-24T18:50:35;21.30;99.90
9662;DHT22;24982;52.344;12.990;2023-06-24T18:53:37;21.10;99.90
9662;DHT22;24982;52.344;12.990;2023-06-24T18:56:39;21.00;99.90
9662;DHT22;24982;52.344;12.990;2023-06-24T18:59:42;20.90;99.90
9662;DHT22;24982;52.344;12.990;2023-06-24T19:02:44;20.80;99.90
9662;DHT22;24982;52.344;12.990;2023-06-24T19:05:48;20.70;99.90
9662;DHT22;24982;52.344;12.990;2023-06-24T19:08:50;20.70;99.90
9662;DHT22;24982;52.344;12.990;2023-06-24T19:11:53;20.60;99.90
9662;DHT22;24982;52.344;12.990;2023-06-24T19:14:55;20.60;99.90
9662;DHT22;24982;52.344;12.990;2023-06-24T19:17:57;20.50;99.90